map of YPY home
YPY - Airport
Location
City:  Fort Chipewyan, Alberta, Canada
Name:Fort Chipewyan Airport
ICAO:CYPY
IATA:YPY

Details
Type:Airport (Airfield)
Use:Public/Civil
Latitude:5846'03"N (58.767500)
Longitude:11107'03"W (-111.117499)
Elevation:761 ft (232 m)
Variation:13.82E (WMM2015 magnetic declination)
-0.20 annual change
Runways:1
Longest:5000 ft (1524 m), paved

Time
Time Zone:UTC-7 (DST-6)
Local Time:

Weather
METAR:CYPY 111000Z AUTO 25004KT 9SM CLR M08/M09 A2956 RMK SLP028
TAF:CYPY 102341Z 1100/1107 VRB03KT P6SM BKN200
FM110300 VRB03KT P6SM SCT200
RMK FCST BASED ON AUTO OBS. NXT FCST WILL BE ISSUED AT 111245Z

Related Locations
Nearby:
Farthest:YWKS: 11007 mi / 17715 km
Wilkins Runway (Casey), Upper Peterson Glacier, AQ

Find:

   beyond  
but within

Other Information
Maps:
NOTAMs:
Links:
Sources:

  
  • flag of Canada
  • flag of Alberta
  

Airport Diagram

Airport diagram for YPY

Airport diagram PDF

Sectional Chart

Flight Planning
at skyvector.com

Satellite Image

Google Maps Satellite view

 

Copyright © 2004-2018 Karl L. Swartz. All rights reserved.
The Great Circle Mapper name and logo are trademarks of the Great Circle Mapper.
All other trademarks mentioned herein belong to their respective owners.
Please see credits for attibutions and further copyright information.

  Follow gcmap on Facebook Follow gcmap on Twitter Follow gcmap on Google+ GCmap on LinkedIn

hCard Microformat

Geo Microformat